Time;durP1;ratioP1;P1;durP2;ratioP2;P2;SDS_P1;SDS_P2;PMS_P1;PMS_P2;Temp;Humidity;BMP_temperature;BMP_pressure;BME280_temperature;BME280_humidity;BME280_pressure;Samples;Min_cycle;Max_cycle;Signal;HPM_P1;HPM_P2
2021/05/18 00:01:30;;;;;;;10.13;6.35;;;;;;;;;;771530;179;919286;-68
2021/05/18 00:03:55;;;;;;;14.03;6.90;;;;;;;;;;771810;180;918970;-68
2021/05/18 00:06:21;;;;;;;13.60;7.87;;;;;;;;;;771207;177;918071;-68
2021/05/18 00:13:51;;;;;;;9.43;5.80;;;;;;;;;;771784;180;919743;-68
2021/05/18 00:16:16;;;;;;;7.50;5.47;;;;;;;;;;773315;178;919435;-68
2021/05/18 00:18:42;;;;;;;8.60;5.63;;;;;;;;;;780083;179;918034;-68
2021/05/18 00:21:08;;;;;;;5.63;5.03;;;;;;;;;;770303;181;919690;-68
2021/05/18 00:23:34;;;;;;;6.30;4.83;;;;;;;;;;761118;180;2254685;-68
2021/05/18 00:26:00;;;;;;;6.13;5.10;;;;;;;;;;779946;180;918943;-69
2021/05/18 00:28:25;;;;;;;7.67;5.60;;;;;;;;;;770071;180;918688;-68
2021/05/18 00:30:51;;;;;;;4.40;3.60;;;;;;;;;;771704;180;919890;-69
2021/05/18 00:33:17;;;;;;;4.63;3.97;;;;;;;;;;778619;179;919251;-68
2021/05/18 00:35:43;;;;;;;5.00;4.50;;;;;;;;;;756825;182;919306;-69
2021/05/18 00:38:09;;;;;;;5.30;4.30;;;;;;;;;;767349;181;1431930;-68
2021/05/18 00:40:35;;;;;;;7.83;4.90;;;;;;;;;;774874;180;928444;-66
2021/05/18 00:43:01;;;;;;;6.60;5.17;;;;;;;;;;772390;180;920252;-67
2021/05/18 00:45:30;;;;;;;5.77;4.30;;;;;;;;;;775079;177;920244;-68
2021/05/18 00:47:56;;;;;;;5.70;4.20;;;;;;;;;;769412;180;918909;-68
2021/05/18 00:50:22;;;;;;;5.70;4.17;;;;;;;;;;779371;180;918666;-68
2021/05/18 00:52:48;;;;;;;6.53;4.03;;;;;;;;;;777908;178;919453;-68
2021/05/18 00:55:20;;;;;;;5.30;4.20;;;;;;;;;;775047;179;912682;-68
2021/05/18 01:00:15;;;;;;;5.50;3.63;;;;;;;;;;776954;180;915592;-68
2021/05/18 01:02:40;;;;;;;5.37;3.10;;;;;;;;;;775149;180;919117;-67
2021/05/18 01:05:10;;;;;;;5.57;3.90;;;;;;;;;;768251;179;1021354;-68
2021/05/18 01:07:33;;;;;;;3.30;2.80;;;;;;;;;;779993;179;919261;-68
2021/05/18 01:09:59;;;;;;;5.00;3.20;;;;;;;;;;778681;180;633279;-69
2021/05/18 01:12:24;;;;;;;5.20;3.23;;;;;;;;;;774003;180;919572;-68
2021/05/18 01:14:51;;;;;;;4.57;3.17;;;;;;;;;;774977;180;919578;-68
2021/05/18 01:17:16;;;;;;;5.33;3.67;;;;;;;;;;776336;180;919794;-69
2021/05/18 01:19:42;;;;;;;9.40;2.90;;;;;;;;;;775295;177;918505;-69
2021/05/18 01:22:08;;;;;;;4.00;3.10;;;;;;;;;;772378;180;918639;-69
2021/05/18 01:24:34;;;;;;;3.30;2.80;;;;;;;;;;778811;180;920232;-69
2021/05/18 01:27:00;;;;;;;4.80;2.87;;;;;;;;;;773757;177;922627;-69
2021/05/18 01:29:26;;;;;;;4.40;3.40;;;;;;;;;;771795;180;920079;-68
2021/05/18 01:31:51;;;;;;;5.87;3.30;;;;;;;;;;778720;180;920701;-68
2021/05/18 01:34:17;;;;;;;4.93;3.30;;;;;;;;;;770331;180;919487;-69
2021/05/18 01:36:43;;;;;;;5.50;3.20;;;;;;;;;;772067;180;919608;-69
2021/05/18 01:44:12;;;;;;;3.10;2.57;;;;;;;;;;772988;180;919282;-68
2021/05/18 01:46:38;;;;;;;15.38;3.80;;;;;;;;;;775532;180;918684;-68
2021/05/18 01:49:04;;;;;;;4.30;3.00;;;;;;;;;;777343;180;919493;-68
2021/05/18 01:51:30;;;;;;;3.20;2.90;;;;;;;;;;767140;180;1023514;-67
2021/05/18 01:53:55;;;;;;;5.30;2.93;;;;;;;;;;772013;180;919604;-67
2021/05/18 01:58:53;;;;;;;4.57;2.93;;;;;;;;;;777378;179;918643;-66
2021/05/18 02:01:19;;;;;;;4.37;2.90;;;;;;;;;;775515;180;919034;-67
2021/05/18 02:03:45;;;;;;;3.62;2.70;;;;;;;;;;774017;180;919456;-68
2021/05/18 02:06:11;;;;;;;5.63;2.93;;;;;;;;;;779107;180;919358;-67
2021/05/18 02:08:36;;;;;;;7.30;3.03;;;;;;;;;;760506;180;2148234;-67
2021/05/18 02:11:02;;;;;;;4.45;2.70;;;;;;;;;;771413;179;971625;-67
2021/05/18 02:13:28;;;;;;;4.40;2.77;;;;;;;;;;774542;180;919048;-66
2021/05/18 02:16:01;;;;;;;4.70;2.77;;;;;;;;;;769628;179;916715;-67
2021/05/18 02:18:37;;;;;;;4.87;2.50;;;;;;;;;;775669;177;919706;-67
2021/05/18 02:22:13;;;;;;;4.20;3.12;;;;;;;;;;773930;180;971467;-68
2021/05/18 02:26:10;;;;;;;4.80;3.30;;;;;;;;;;773801;181;919287;-67
2021/05/18 02:28:36;;;;;;;4.90;3.60;;;;;;;;;;778040;181;898458;-68
2021/05/18 02:31:01;;;;;;;4.37;3.63;;;;;;;;;;774317;181;893424;-68
2021/05/18 02:33:27;;;;;;;5.25;3.58;;;;;;;;;;773681;181;919158;-68
2021/05/18 02:35:53;;;;;;;4.83;3.33;;;;;;;;;;776246;180;626509;-67
2021/05/18 02:38:19;;;;;;;5.30;4.60;;;;;;;;;;765792;180;919554;-68
2021/05/18 02:40:45;;;;;;;5.53;4.40;;;;;;;;;;768177;180;918907;-68
2021/05/18 02:43:15;;;;;;;9.17;4.80;;;;;;;;;;777588;180;918458;-68
2021/05/18 02:45:47;;;;;;;5.73;4.43;;;;;;;;;;758365;181;1008938;-68
2021/05/18 02:50:35;;;;;;;8.73;5.40;;;;;;;;;;772106;180;919040;-69
2021/05/18 02:53:01;;;;;;;5.83;4.47;;;;;;;;;;787047;180;626282;-69
2021/05/18 02:55:39;;;;;;;5.83;4.57;;;;;;;;;;771512;180;629641;-68
2021/05/18 02:57:58;;;;;;;6.77;5.30;;;;;;;;;;777485;180;634148;-69
2021/05/18 03:00:24;;;;;;;5.50;4.37;;;;;;;;;;778080;180;621127;-69
2021/05/18 03:02:51;;;;;;;6.10;4.47;;;;;;;;;;779682;180;916691;-67
2021/05/18 03:05:16;;;;;;;5.87;4.30;;;;;;;;;;775096;180;916192;-67
2021/05/18 03:07:42;;;;;;;4.73;3.90;;;;;;;;;;771995;181;921523;-67
2021/05/18 03:10:08;;;;;;;5.10;4.40;;;;;;;;;;778528;177;915714;-67
2021/05/18 03:12:34;;;;;;;5.77;5.00;;;;;;;;;;776068;176;916807;-67
2021/05/18 03:15:00;;;;;;;4.13;3.73;;;;;;;;;;774235;180;919700;-67
2021/05/18 03:17:26;;;;;;;5.63;4.97;;;;;;;;;;780734;180;917310;-67
2021/05/18 03:19:52;;;;;;;5.03;3.97;;;;;;;;;;771383;180;915510;-68
2021/05/18 03:22:17;;;;;;;7.22;4.78;;;;;;;;;;776133;177;1068790;-68
2021/05/18 03:24:43;;;;;;;5.40;4.27;;;;;;;;;;773606;178;911111;-66
2021/05/18 03:27:10;;;;;;;5.83;4.80;;;;;;;;;;774737;179;886198;-67
2021/05/18 03:29:35;;;;;;;7.40;6.03;;;;;;;;;;776499;176;919319;-67
2021/05/18 03:34:34;;;;;;;5.43;4.40;;;;;;;;;;777274;180;1021355;-67
2021/05/18 03:37:02;;;;;;;4.43;3.97;;;;;;;;;;773727;181;919683;-67
2021/05/18 03:39:25;;;;;;;5.10;3.70;;;;;;;;;;777450;180;781396;-68
2021/05/18 03:42:02;;;;;;;7.53;3.67;;;;;;;;;;778950;181;626076;-67
2021/05/18 03:44:33;;;;;;;3.90;3.43;;;;;;;;;;762600;181;919433;-68
2021/05/18 03:52:19;;;;;;;4.77;3.47;;;;;;;;;;776168;178;817235;-68
2021/05/18 03:55:04;;;;;;;5.50;3.40;;;;;;;;;;776392;178;628694;-67
2021/05/18 04:05:08;;;;;;;5.78;3.12;;;;;;;;;;771871;180;917452;-67
2021/05/18 04:12:46;;;;;;;14.03;6.07;;;;;;;;;;780267;180;919413;-66
2021/05/18 04:18:15;;;;;;;4.60;2.67;;;;;;;;;;780800;180;612776;-68
2021/05/18 04:20:33;;;;;;;7.53;3.10;;;;;;;;;;775855;178;627536;-70
2021/05/18 04:25:49;;;;;;;3.90;2.97;;;;;;;;;;782486;178;634824;-68
2021/05/18 04:53:48;;;;;;;5.40;3.20;;;;;;;;;;773004;178;919371;-67
2021/05/18 05:01:09;;;;;;;3.42;3.00;;;;;;;;;;778191;179;915362;-67
2021/05/18 05:03:48;;;;;;;3.83;3.23;;;;;;;;;;772056;179;915353;-68
2021/05/18 05:08:41;;;;;;;5.13;4.23;;;;;;;;;;773402;180;927083;-68
2021/05/18 05:16:10;;;;;;;5.10;3.37;;;;;;;;;;775800;180;918942;-68
2021/05/18 05:18:36;;;;;;;4.50;3.95;;;;;;;;;;762786;179;1219783;-69
2021/05/18 05:21:02;;;;;;;4.57;3.50;;;;;;;;;;773558;180;915497;-68
2021/05/18 05:23:27;;;;;;;4.70;3.93;;;;;;;;;;774526;180;898068;-68
2021/05/18 05:25:53;;;;;;;4.97;3.07;;;;;;;;;;773804;177;919286;-68
2021/05/18 05:28:19;;;;;;;6.80;3.53;;;;;;;;;;774516;178;915410;-67
2021/05/18 05:30:45;;;;;;;4.67;3.73;;;;;;;;;;778081;179;915854;-67
2021/05/18 05:33:11;;;;;;;4.80;3.50;;;;;;;;;;772504;177;914632;-68
2021/05/18 05:35:36;;;;;;;3.60;3.15;;;;;;;;;;773282;179;914832;-67
2021/05/18 05:38:02;;;;;;;3.50;3.10;;;;;;;;;;780271;180;919622;-68
2021/05/18 05:40:28;;;;;;;3.90;3.45;;;;;;;;;;774452;180;919410;-68
2021/05/18 05:42:54;;;;;;;4.40;3.40;;;;;;;;;;777654;177;919158;-68
2021/05/18 05:45:20;;;;;;;5.10;3.20;;;;;;;;;;783059;177;612908;-68
2021/05/18 05:47:46;;;;;;;3.37;2.90;;;;;;;;;;777638;178;918181;-68
2021/05/18 05:50:12;;;;;;;4.03;3.00;;;;;;;;;;777759;177;899228;-69
2021/05/18 05:52:38;;;;;;;4.70;2.83;;;;;;;;;;773822;181;924629;-66
2021/05/18 05:55:04;;;;;;;5.07;2.47;;;;;;;;;;776719;180;919930;-67
2021/05/18 05:57:30;;;;;;;5.37;3.00;;;;;;;;;;774239;180;918474;-67
2021/05/18 05:59:56;;;;;;;4.63;2.90;;;;;;;;;;767779;180;919251;-68
2021/05/18 06:02:22;;;;;;;2.90;2.60;;;;;;;;;;779625;177;893941;-68
2021/05/18 06:04:48;;;;;;;5.70;2.93;;;;;;;;;;770505;180;918068;-67
2021/05/18 06:07:13;;;;;;;3.10;2.77;;;;;;;;;;762788;180;919070;-67
2021/05/18 06:09:39;;;;;;;4.70;2.90;;;;;;;;;;782474;178;918408;-67
2021/05/18 06:12:20;;;;;;;3.10;2.60;;;;;;;;;;774035;177;918623;-67
2021/05/18 06:14:41;;;;;;;4.30;2.63;;;;;;;;;;767192;180;918988;-68
2021/05/18 06:17:24;;;;;;;4.10;2.60;;;;;;;;;;775666;178;919259;-67
2021/05/18 06:35:14;;;;;;;4.87;2.90;;;;;;;;;;774623;178;916357;-67
2021/05/18 06:37:28;;;;;;;3.43;2.60;;;;;;;;;;770809;180;916940;-68
2021/05/18 06:49:58;;;;;;;4.00;2.83;;;;;;;;;;772697;177;914697;-70
2021/05/18 06:52:17;;;;;;;3.07;2.77;;;;;;;;;;775525;180;919471;-67
2021/05/18 06:54:43;;;;;;;3.87;2.87;;;;;;;;;;780506;180;913924;-68
2021/05/18 06:57:09;;;;;;;4.83;2.83;;;;;;;;;;774285;180;919192;-68
2021/05/18 07:02:06;;;;;;;4.00;3.53;;;;;;;;;;774304;178;920231;-68
2021/05/18 07:04:35;;;;;;;3.83;2.43;;;;;;;;;;771486;181;919182;-68
2021/05/18 07:07:09;;;;;;;6.33;3.17;;;;;;;;;;770537;177;919038;-67
2021/05/18 07:09:28;;;;;;;2.90;2.60;;;;;;;;;;772809;180;919796;-68
2021/05/18 07:11:53;;;;;;;5.07;3.37;;;;;;;;;;777843;180;919407;-66
2021/05/18 07:14:19;;;;;;;3.73;3.07;;;;;;;;;;774789;180;919831;-67
2021/05/18 07:16:46;;;;;;;5.40;3.05;;;;;;;;;;776148;178;919133;-67
2021/05/18 07:19:11;;;;;;;3.50;2.60;;;;;;;;;;781093;180;919537;-68
2021/05/18 07:21:37;;;;;;;8.73;2.78;;;;;;;;;;775321;178;918090;-67
2021/05/18 07:24:08;;;;;;;3.87;2.57;;;;;;;;;;774165;180;918510;-67
2021/05/18 07:26:29;;;;;;;2.97;2.67;;;;;;;;;;773495;178;920916;-67
2021/05/18 07:28:55;;;;;;;3.90;2.90;;;;;;;;;;781489;177;918915;-67
2021/05/18 07:31:21;;;;;;;5.03;4.50;;;;;;;;;;772659;180;919174;-68
2021/05/18 07:33:46;;;;;;;3.23;2.80;;;;;;;;;;773777;180;919156;-68
2021/05/18 07:36:12;;;;;;;4.40;2.80;;;;;;;;;;776934;180;919456;-66
2021/05/18 07:38:39;;;;;;;3.20;2.47;;;;;;;;;;773170;180;918714;-67
2021/05/18 07:41:05;;;;;;;3.50;2.57;;;;;;;;;;774218;180;923840;-68
2021/05/18 07:43:31;;;;;;;4.50;3.20;;;;;;;;;;777710;180;1021907;-68
2021/05/18 07:45:59;;;;;;;3.03;2.60;;;;;;;;;;770726;180;921940;-68
2021/05/18 07:48:28;;;;;;;20.00;3.90;;;;;;;;;;772651;180;919904;-68
2021/05/18 08:01:11;;;;;;;3.37;2.40;;;;;;;;;;776400;177;911742;-68
2021/05/18 08:05:55;;;;;;;4.57;2.97;;;;;;;;;;777106;180;942666;-68
2021/05/18 08:08:21;;;;;;;3.10;2.00;;;;;;;;;;776763;180;919109;-69
2021/05/18 08:10:51;;;;;;;3.17;2.87;;;;;;;;;;777217;180;622288;-68
2021/05/18 08:13:17;;;;;;;2.50;2.20;;;;;;;;;;781345;178;621692;-68
2021/05/18 08:16:01;;;;;;;3.10;2.40;;;;;;;;;;778323;177;678117;-68
2021/05/18 08:19:29;;;;;;;13.53;2.60;;;;;;;;;;776192;180;649594;-69
2021/05/18 08:21:21;;;;;;;3.63;2.80;;;;;;;;;;779454;178;623533;-67
2021/05/18 08:49:37;;;;;;;3.10;2.60;;;;;;;;;;766357;180;1405000;-67
2021/05/18 09:01:58;;;;;;;3.43;3.03;;;;;;;;;;770126;181;919212;-68
2021/05/18 09:41:56;;;;;;;2.80;2.30;;;;;;;;;;769521;180;919363;-67
2021/05/18 09:48:20;;;;;;;3.43;2.43;;;;;;;;;;775059;180;919382;-68
2021/05/18 10:24:01;;;;;;;3.43;2.47;;;;;;;;;;778363;180;922882;-68
2021/05/18 10:36:10;;;;;;;2.35;1.80;;;;;;;;;;774407;177;920896;-69
2021/05/18 10:38:39;;;;;;;10.70;3.00;;;;;;;;;;774120;177;916311;-66
2021/05/18 10:41:15;;;;;;;2.63;2.00;;;;;;;;;;779026;177;915391;-69
2021/05/18 10:43:40;;;;;;;3.63;2.03;;;;;;;;;;780667;180;914604;-68
2021/05/18 10:46:06;;;;;;;6.07;2.37;;;;;;;;;;773419;180;1013124;-68
2021/05/18 10:48:53;;;;;;;4.20;2.27;;;;;;;;;;773187;177;918874;-69
2021/05/18 10:51:33;;;;;;;8.70;2.80;;;;;;;;;;772011;180;918596;-70
2021/05/18 10:54:03;;;;;;;3.67;2.10;;;;;;;;;;773589;180;918879;-69
2021/05/18 10:56:29;;;;;;;3.00;2.10;;;;;;;;;;779706;180;925166;-69
2021/05/18 10:58:55;;;;;;;2.70;2.00;;;;;;;;;;771629;180;919552;-71
2021/05/18 11:01:20;;;;;;;7.27;2.33;;;;;;;;;;768990;180;919026;-69
2021/05/18 11:03:47;;;;;;;3.87;2.45;;;;;;;;;;774716;177;919341;-69
2021/05/18 11:06:13;;;;;;;2.67;2.20;;;;;;;;;;775295;180;918380;-69
2021/05/18 11:08:39;;;;;;;3.07;2.07;;;;;;;;;;773787;180;919446;-69
2021/05/18 11:11:05;;;;;;;2.37;1.80;;;;;;;;;;770921;181;919764;-70
2021/05/18 11:13:30;;;;;;;3.13;2.30;;;;;;;;;;777461;180;912847;-68
2021/05/18 11:15:56;;;;;;;2.40;1.70;;;;;;;;;;772101;181;919129;-69
2021/05/18 11:18:22;;;;;;;4.63;1.77;;;;;;;;;;774330;180;919709;-70
2021/05/18 11:20:59;;;;;;;2.55;2.17;;;;;;;;;;775064;180;918262;-70
2021/05/18 11:23:22;;;;;;;3.83;1.77;;;;;;;;;;760839;181;918660;-70
2021/05/18 11:25:47;;;;;;;5.03;1.93;;;;;;;;;;771036;179;917845;-69
2021/05/18 11:28:12;;;;;;;4.25;1.80;;;;;;;;;;771501;178;919076;-69
2021/05/18 11:30:38;;;;;;;2.20;1.53;;;;;;;;;;777660;180;919480;-68
2021/05/18 11:33:04;;;;;;;2.60;2.00;;;;;;;;;;777022;177;992707;-69
2021/05/18 11:35:29;;;;;;;3.00;2.07;;;;;;;;;;773274;178;919396;-70
2021/05/18 11:37:58;;;;;;;2.90;1.93;;;;;;;;;;785371;177;626161;-69
2021/05/18 11:40:24;;;;;;;2.67;2.00;;;;;;;;;;771683;180;919502;-69
2021/05/18 11:42:50;;;;;;;4.20;2.00;;;;;;;;;;772649;180;918861;-69
2021/05/18 11:45:16;;;;;;;2.87;1.87;;;;;;;;;;773518;177;922563;-69
2021/05/18 11:47:42;;;;;;;2.40;1.63;;;;;;;;;;773481;180;918657;-69
2021/05/18 11:50:09;;;;;;;4.70;1.80;;;;;;;;;;767534;180;919165;-69
2021/05/18 11:52:34;;;;;;;4.83;1.77;;;;;;;;;;770452;180;943939;-69
2021/05/18 11:55:00;;;;;;;2.53;1.65;;;;;;;;;;779883;179;921897;-70
2021/05/18 11:57:26;;;;;;;3.80;1.63;;;;;;;;;;772715;179;918695;-69
2021/05/18 11:59:52;;;;;;;2.70;1.80;;;;;;;;;;772158;180;918883;-69
2021/05/18 12:02:18;;;;;;;2.77;2.00;;;;;;;;;;776234;180;918586;-68
2021/05/18 12:04:45;;;;;;;2.73;2.10;;;;;;;;;;773452;180;918907;-69
2021/05/18 12:07:11;;;;;;;4.77;2.40;;;;;;;;;;776335;180;633411;-70
2021/05/18 12:09:35;;;;;;;3.40;2.27;;;;;;;;;;778166;179;636127;-70
2021/05/18 12:12:01;;;;;;;4.30;1.80;;;;;;;;;;773071;178;638231;-70
2021/05/18 12:14:28;;;;;;;2.53;1.60;;;;;;;;;;772646;180;922708;-70
2021/05/18 12:16:53;;;;;;;3.90;1.57;;;;;;;;;;776005;180;631275;-69
2021/05/18 12:19:18;;;;;;;5.40;2.20;;;;;;;;;;781175;180;631616;-68
2021/05/18 12:21:45;;;;;;;3.20;1.97;;;;;;;;;;770952;180;1400143;-69
2021/05/18 12:24:10;;;;;;;2.93;1.80;;;;;;;;;;774591;180;628568;-69
2021/05/18 12:26:42;;;;;;;28.30;4.30;;;;;;;;;;779748;180;626737;-70
2021/05/18 12:29:08;;;;;;;3.00;2.00;;;;;;;;;;779428;177;626825;-69
2021/05/18 12:31:34;;;;;;;2.50;1.53;;;;;;;;;;771085;181;918991;-69
2021/05/18 12:34:00;;;;;;;3.83;1.57;;;;;;;;;;770745;180;919327;-68
2021/05/18 12:36:27;;;;;;;2.07;1.53;;;;;;;;;;761630;181;919602;-69
2021/05/18 12:38:57;;;;;;;2.50;1.40;;;;;;;;;;768935;180;918653;-70
2021/05/18 12:41:23;;;;;;;2.57;1.60;;;;;;;;;;767424;177;918083;-69
2021/05/18 12:43:51;;;;;;;2.55;1.55;;;;;;;;;;778043;178;920101;-71
2021/05/18 12:46:15;;;;;;;2.73;1.60;;;;;;;;;;774854;180;919398;-70
2021/05/18 12:48:41;;;;;;;2.80;1.60;;;;;;;;;;774227;181;919510;-69
2021/05/18 12:51:12;;;;;;;3.77;1.33;;;;;;;;;;780304;178;924272;-68
2021/05/18 12:53:38;;;;;;;2.23;1.50;;;;;;;;;;778124;180;922594;-68
2021/05/18 12:56:04;;;;;;;4.20;1.70;;;;;;;;;;769505;180;919588;-69
2021/05/18 12:58:30;;;;;;;2.37;1.65;;;;;;;;;;772976;180;1338992;-69
2021/05/18 13:01:02;;;;;;;3.63;1.77;;;;;;;;;;779239;180;938382;-69
2021/05/18 13:03:28;;;;;;;5.20;1.90;;;;;;;;;;774026;180;918357;-70
2021/05/18 13:05:54;;;;;;;2.70;1.50;;;;;;;;;;772791;180;918927;-70
2021/05/18 13:08:20;;;;;;;2.80;1.73;;;;;;;;;;771090;180;920015;-69
2021/05/18 13:13:28;;;;;;;2.58;1.60;;;;;;;;;;768957;179;919165;-69
2021/05/18 13:16:00;;;;;;;3.53;1.70;;;;;;;;;;772943;178;918726;-69
2021/05/18 13:18:26;;;;;;;2.50;1.50;;;;;;;;;;772191;179;919588;-70
2021/05/18 13:20:51;;;;;;;7.47;2.00;;;;;;;;;;776246;177;1123297;-69
2021/05/18 13:23:27;;;;;;;4.70;1.67;;;;;;;;;;771296;178;916867;-70
2021/05/18 13:28:18;;;;;;;3.00;1.83;;;;;;;;;;772787;180;920278;-68
2021/05/18 13:30:44;;;;;;;2.40;1.57;;;;;;;;;;777885;180;919899;-70
2021/05/18 13:33:10;;;;;;;4.00;1.80;;;;;;;;;;770685;180;909487;-70
2021/05/18 13:35:36;;;;;;;4.17;1.87;;;;;;;;;;772629;181;954100;-70
2021/05/18 13:38:02;;;;;;;2.90;1.77;;;;;;;;;;772928;180;919545;-71
2021/05/18 13:40:28;;;;;;;2.97;1.80;;;;;;;;;;770043;181;914975;-70
2021/05/18 13:42:54;;;;;;;3.40;1.90;;;;;;;;;;772398;177;918669;-68
2021/05/18 13:45:20;;;;;;;3.03;2.03;;;;;;;;;;772912;180;919128;-69
2021/05/18 13:47:47;;;;;;;4.30;2.43;;;;;;;;;;778638;177;917835;-66
2021/05/18 13:50:12;;;;;;;4.32;2.00;;;;;;;;;;772539;177;875781;-68
2021/05/18 13:52:38;;;;;;;2.90;1.90;;;;;;;;;;768919;177;874783;-68
2021/05/18 13:55:05;;;;;;;2.30;1.60;;;;;;;;;;780627;179;918583;-69
2021/05/18 13:57:31;;;;;;;2.40;1.70;;;;;;;;;;775292;180;912421;-67
2021/05/18 13:59:56;;;;;;;3.10;2.10;;;;;;;;;;773773;180;918597;-68
2021/05/18 14:02:23;;;;;;;2.40;1.70;;;;;;;;;;779392;180;920886;-66
2021/05/18 14:04:49;;;;;;;3.00;2.27;;;;;;;;;;765350;181;919712;-68
2021/05/18 14:07:39;;;;;;;2.53;1.67;;;;;;;;;;773893;178;918774;-68
2021/05/18 14:09:49;;;;;;;2.40;2.00;;;;;;;;;;771275;180;920931;-69
2021/05/18 14:12:15;;;;;;;3.13;1.60;;;;;;;;;;775820;180;919345;-67
2021/05/18 14:14:41;;;;;;;2.90;2.00;;;;;;;;;;775574;178;990750;-68
2021/05/18 14:17:07;;;;;;;3.25;2.33;;;;;;;;;;775649;179;917428;-68
2021/05/18 14:19:33;;;;;;;5.93;1.80;;;;;;;;;;772535;181;917995;-69
2021/05/18 14:21:59;;;;;;;4.60;2.23;;;;;;;;;;768166;181;919236;-67
2021/05/18 14:24:36;;;;;;;2.60;1.80;;;;;;;;;;763220;180;919056;-68
2021/05/18 14:26:51;;;;;;;5.33;2.13;;;;;;;;;;777812;180;627269;-68
2021/05/18 14:29:16;;;;;;;2.97;2.23;;;;;;;;;;780212;180;633411;-68
2021/05/18 14:31:42;;;;;;;2.60;1.80;;;;;;;;;;776398;177;623657;-68
2021/05/18 14:34:08;;;;;;;2.57;1.73;;;;;;;;;;775497;180;626048;-68
2021/05/18 14:36:34;;;;;;;4.40;2.30;;;;;;;;;;775161;180;920293;-69
2021/05/18 14:39:04;;;;;;;3.43;2.10;;;;;;;;;;774018;180;929173;-68
2021/05/18 14:44:12;;;;;;;2.93;2.20;;;;;;;;;;773234;180;916593;-68
2021/05/18 14:47:03;;;;;;;5.50;2.23;;;;;;;;;;773565;178;915213;-69
2021/05/18 14:54:43;;;;;;;3.10;1.87;;;;;;;;;;778677;178;924188;-69
2021/05/18 14:56:53;;;;;;;5.97;1.60;;;;;;;;;;769167;180;919184;-69
2021/05/18 14:59:19;;;;;;;2.77;1.90;;;;;;;;;;772057;180;918723;-70
2021/05/18 15:01:45;;;;;;;2.67;1.70;;;;;;;;;;772430;181;919275;-69
2021/05/18 15:04:11;;;;;;;3.47;1.87;;;;;;;;;;770785;179;919341;-67
2021/05/18 15:06:37;;;;;;;4.33;2.27;;;;;;;;;;774795;180;919639;-70
2021/05/18 15:09:03;;;;;;;5.63;1.77;;;;;;;;;;782181;179;919390;-69
2021/05/18 15:11:31;;;;;;;3.40;1.67;;;;;;;;;;774706;179;920176;-68
2021/05/18 15:13:56;;;;;;;3.70;1.90;;;;;;;;;;774708;180;919501;-69
2021/05/18 15:16:22;;;;;;;2.67;1.53;;;;;;;;;;774404;181;919129;-68
2021/05/18 15:18:51;;;;;;;2.80;1.50;;;;;;;;;;763477;181;918393;-70
2021/05/18 15:21:14;;;;;;;3.90;1.93;;;;;;;;;;779121;180;636072;-68
2021/05/18 15:23:40;;;;;;;2.30;1.53;;;;;;;;;;774404;180;642442;-70
2021/05/18 15:26:06;;;;;;;3.20;1.40;;;;;;;;;;772518;180;919198;-69
2021/05/18 15:28:32;;;;;;;2.30;1.27;;;;;;;;;;770832;179;623366;-70
2021/05/18 15:30:57;;;;;;;3.30;1.83;;;;;;;;;;772407;180;629000;-68
2021/05/18 15:33:23;;;;;;;2.77;1.20;;;;;;;;;;783412;177;634205;-70
2021/05/18 15:35:49;;;;;;;3.30;1.47;;;;;;;;;;774740;178;918306;-69
2021/05/18 15:38:15;;;;;;;1.73;1.00;;;;;;;;;;771494;180;1020769;-70
2021/05/18 15:40:41;;;;;;;2.30;1.20;;;;;;;;;;777697;180;679961;-68
2021/05/18 15:43:07;;;;;;;1.90;1.23;;;;;;;;;;775824;180;625677;-70
2021/05/18 15:45:33;;;;;;;2.27;1.27;;;;;;;;;;775546;180;632634;-69
2021/05/18 15:47:58;;;;;;;1.80;1.20;;;;;;;;;;776969;179;666953;-69
2021/05/18 15:50:24;;;;;;;2.43;1.47;;;;;;;;;;784643;177;630468;-70
2021/05/18 15:52:50;;;;;;;2.43;1.20;;;;;;;;;;779780;180;637395;-71
2021/05/18 15:55:16;;;;;;;2.20;1.30;;;;;;;;;;775113;180;919590;-69
2021/05/18 15:57:42;;;;;;;2.27;1.20;;;;;;;;;;780815;180;655864;-69
2021/05/18 16:00:08;;;;;;;2.70;1.43;;;;;;;;;;777807;179;628318;-69
2021/05/18 16:02:34;;;;;;;2.53;1.13;;;;;;;;;;765853;180;616786;-68
2021/05/18 16:05:00;;;;;;;5.50;1.23;;;;;;;;;;773280;180;644345;-68
2021/05/18 16:07:26;;;;;;;1.80;1.10;;;;;;;;;;772190;180;614406;-69
2021/05/18 16:09:51;;;;;;;2.60;1.50;;;;;;;;;;777655;180;627317;-70
2021/05/18 16:12:17;;;;;;;2.10;1.33;;;;;;;;;;778225;180;630120;-68
2021/05/18 16:14:44;;;;;;;3.00;1.40;;;;;;;;;;765487;181;915305;-69
2021/05/18 16:17:10;;;;;;;2.90;1.33;;;;;;;;;;758998;184;636160;-68
2021/05/18 16:19:36;;;;;;;3.62;1.65;;;;;;;;;;738138;184;623790;-69
2021/05/18 16:22:02;;;;;;;2.20;1.40;;;;;;;;;;756491;186;619463;-68
2021/05/18 16:24:30;;;;;;;2.43;1.23;;;;;;;;;;778207;178;634691;-69
2021/05/18 16:26:53;;;;;;;2.80;1.20;;;;;;;;;;775511;180;623264;-69
2021/05/18 16:29:19;;;;;;;3.40;1.43;;;;;;;;;;783807;180;629243;-69
2021/05/18 16:31:45;;;;;;;2.50;1.23;;;;;;;;;;782119;180;640714;-69
2021/05/18 16:34:10;;;;;;;2.07;1.20;;;;;;;;;;775638;181;633501;-68
2021/05/18 16:36:36;;;;;;;2.10;1.37;;;;;;;;;;774647;180;623193;-68
2021/05/18 16:39:02;;;;;;;2.20;1.33;;;;;;;;;;778303;180;627083;-69
2021/05/18 16:41:28;;;;;;;2.23;1.43;;;;;;;;;;774370;177;1036049;-69
2021/05/18 16:43:54;;;;;;;2.33;1.63;;;;;;;;;;776826;180;620659;-69
2021/05/18 16:46:20;;;;;;;2.10;1.50;;;;;;;;;;782554;179;617541;-69
2021/05/18 16:48:46;;;;;;;3.20;1.63;;;;;;;;;;772235;180;624768;-69
2021/05/18 16:51:11;;;;;;;4.23;1.50;;;;;;;;;;773248;180;630352;-69
2021/05/18 16:53:37;;;;;;;5.70;1.63;;;;;;;;;;771798;180;627412;-69
2021/05/18 16:56:03;;;;;;;2.53;1.60;;;;;;;;;;774364;180;629906;-69
2021/05/18 16:58:29;;;;;;;2.47;1.33;;;;;;;;;;777113;179;627754;-69
2021/05/18 17:00:55;;;;;;;2.30;1.43;;;;;;;;;;783603;180;638059;-69
2021/05/18 17:03:21;;;;;;;2.30;1.40;;;;;;;;;;779161;178;621168;-68
2021/05/18 17:05:47;;;;;;;2.50;1.60;;;;;;;;;;775500;177;623712;-69
2021/05/18 17:08:12;;;;;;;3.83;1.13;;;;;;;;;;761808;181;914546;-69
2021/05/18 17:10:38;;;;;;;2.80;1.20;;;;;;;;;;769359;180;617248;-69
2021/05/18 17:13:04;;;;;;;2.33;1.70;;;;;;;;;;766904;180;617352;-69
2021/05/18 17:15:30;;;;;;;2.60;1.23;;;;;;;;;;772895;179;635779;-69
2021/05/18 17:17:56;;;;;;;3.40;1.20;;;;;;;;;;772635;181;623668;-69
2021/05/18 17:20:22;;;;;;;2.73;1.40;;;;;;;;;;776912;181;624292;-69
2021/05/18 17:22:48;;;;;;;3.60;1.20;;;;;;;;;;776851;180;630481;-70
2021/05/18 17:25:13;;;;;;;2.30;1.17;;;;;;;;;;779226;180;636956;-69
2021/05/18 17:27:39;;;;;;;3.57;1.57;;;;;;;;;;774416;180;646992;-69
2021/05/18 17:30:06;;;;;;;2.80;1.30;;;;;;;;;;777711;179;625554;-70
2021/05/18 17:32:31;;;;;;;3.53;1.30;;;;;;;;;;780876;179;615482;-71
2021/05/18 17:34:57;;;;;;;2.20;1.20;;;;;;;;;;777923;180;628579;-69
2021/05/18 17:37:23;;;;;;;1.90;1.30;;;;;;;;;;779881;178;646202;-69
2021/05/18 17:39:49;;;;;;;6.33;1.40;;;;;;;;;;779566;180;649074;-69
2021/05/18 17:42:16;;;;;;;3.13;1.70;;;;;;;;;;781914;181;623526;-69
2021/05/18 17:44:41;;;;;;;2.17;1.47;;;;;;;;;;779886;180;622101;-69
2021/05/18 17:47:06;;;;;;;2.07;1.27;;;;;;;;;;777526;180;646336;-69
2021/05/18 17:49:32;;;;;;;1.90;1.25;;;;;;;;;;782522;180;615945;-69
2021/05/18 17:52:00;;;;;;;2.40;1.40;;;;;;;;;;774764;180;633682;-70
2021/05/18 17:54:24;;;;;;;2.20;1.43;;;;;;;;;;770270;180;625153;-70
2021/05/18 17:56:50;;;;;;;1.90;1.10;;;;;;;;;;774048;178;618056;-70
2021/05/18 17:59:16;;;;;;;2.77;1.67;;;;;;;;;;778407;180;628126;-70
2021/05/18 18:01:42;;;;;;;2.63;1.40;;;;;;;;;;777204;180;625270;-70
2021/05/18 18:04:08;;;;;;;2.13;1.40;;;;;;;;;;780279;180;623328;-69
2021/05/18 18:06:33;;;;;;;2.43;1.70;;;;;;;;;;777497;180;618147;-68
2021/05/18 18:09:00;;;;;;;3.43;1.67;;;;;;;;;;776313;177;623140;-70
2021/05/18 18:11:25;;;;;;;3.60;1.60;;;;;;;;;;774286;180;623064;-70
2021/05/18 18:13:51;;;;;;;4.33;1.83;;;;;;;;;;781594;181;643600;-69
2021/05/18 18:16:17;;;;;;;2.90;2.03;;;;;;;;;;776163;177;636341;-70
2021/05/18 18:18:43;;;;;;;2.20;1.50;;;;;;;;;;774044;180;631812;-69
2021/05/18 18:21:08;;;;;;;3.47;1.73;;;;;;;;;;784120;177;618180;-70
2021/05/18 18:23:35;;;;;;;10.47;1.80;;;;;;;;;;776031;178;624621;-70
2021/05/18 18:26:01;;;;;;;2.70;1.70;;;;;;;;;;776151;180;627169;-70
2021/05/18 18:28:27;;;;;;;4.07;2.17;;;;;;;;;;778831;180;621253;-70
2021/05/18 18:30:53;;;;;;;4.07;2.23;;;;;;;;;;777129;180;616507;-70
2021/05/18 18:33:21;;;;;;;7.03;1.70;;;;;;;;;;774708;177;641485;-71
2021/05/18 18:35:45;;;;;;;2.57;1.53;;;;;;;;;;777321;180;642969;-70
2021/05/18 18:38:11;;;;;;;4.53;2.20;;;;;;;;;;778790;181;916844;-70
2021/05/18 18:40:37;;;;;;;2.50;1.83;;;;;;;;;;775128;180;910578;-70
2021/05/18 18:43:03;;;;;;;3.10;1.80;;;;;;;;;;779610;179;642496;-71